createdAt,value
2019-02-10T00:00:12.196Z,27.43
2019-02-10T00:03:20.552Z,29.60
2019-02-10T00:06:27.352Z,38.70
2019-02-10T00:09:34.212Z,34.50
2019-02-10T00:12:41.245Z,29.67
2019-02-10T00:15:48.075Z,28.53
2019-02-10T00:18:54.892Z,40.03
2019-02-10T00:22:02.103Z,42.67
2019-02-10T00:25:09.124Z,36.47
2019-02-10T00:28:16.088Z,32.37
2019-02-10T00:31:22.967Z,30.70
2019-02-10T00:34:30.842Z,31.73
2019-02-10T00:37:37.715Z,36.00
2019-02-10T00:40:44.588Z,35.47
2019-02-10T00:43:51.352Z,29.03
2019-02-10T00:46:58.380Z,31.60
2019-02-10T00:50:06.087Z,30.87
2019-02-10T00:53:12.818Z,36.57
2019-02-10T00:56:19.695Z,33.33
2019-02-10T00:59:26.410Z,32.90
2019-02-10T01:02:33.152Z,33.60
2019-02-10T01:05:39.934Z,37.90
2019-02-10T01:08:46.766Z,34.47
2019-02-10T01:11:53.585Z,35.93
2019-02-10T01:15:00.495Z,28.27
2019-02-10T01:18:07.332Z,36.87
2019-02-10T01:21:14.251Z,34.97
2019-02-10T01:24:21.145Z,40.67
2019-02-10T01:27:27.886Z,37.40
2019-02-10T01:30:35.110Z,37.00
2019-02-10T01:33:41.888Z,36.97
2019-02-10T01:36:49.952Z,39.40
2019-02-10T01:39:56.938Z,34.90
2019-02-10T01:43:03.791Z,34.10
2019-02-10T01:46:10.533Z,24.37
2019-02-10T01:49:17.323Z,33.33
2019-02-10T01:52:24.187Z,30.90
2019-02-10T01:55:32.929Z,31.03
2019-02-10T01:58:39.579Z,31.80
2019-02-10T02:01:46.707Z,32.20
2019-02-10T02:04:53.500Z,32.13
2019-02-10T02:08:00.244Z,32.40
2019-02-10T02:11:07.032Z,28.10
2019-02-10T02:14:13.860Z,30.03
2019-02-10T02:17:21.840Z,29.57
2019-02-10T02:20:28.602Z,32.53
2019-02-10T02:23:35.525Z,33.07
2019-02-10T02:26:42.410Z,32.00
2019-02-10T02:29:49.145Z,35.67
2019-02-10T02:32:56.273Z,21.37
2019-02-10T02:36:03.087Z,33.97
2019-02-10T02:39:09.926Z,25.27
2019-02-10T02:42:17.022Z,34.17
2019-02-10T02:45:23.738Z,29.93
2019-02-10T02:48:30.634Z,36.50
2019-02-10T02:51:37.470Z,36.53
2019-02-10T02:54:44.357Z,38.43
2019-02-10T02:57:52.408Z,31.90
2019-02-10T03:00:59.328Z,31.00
2019-02-10T03:04:06.126Z,32.43
2019-02-10T03:07:17.972Z,34.40
2019-02-10T03:10:22.608Z,32.80
2019-02-10T03:13:29.543Z,36.40
2019-02-10T03:16:36.416Z,36.17
2019-02-10T03:19:43.202Z,27.60
2019-02-10T03:22:51.004Z,24.23
2019-02-10T03:25:57.799Z,26.57
2019-02-10T03:29:04.549Z,30.63
2019-02-10T03:32:11.313Z,30.63
2019-02-10T03:35:18.066Z,32.70
2019-02-10T03:38:24.897Z,29.73
2019-02-10T03:41:31.681Z,26.10
2019-02-10T03:44:38.414Z,29.80
2019-02-10T03:47:45.212Z,24.40
2019-02-10T03:50:52.042Z,31.77
2019-02-10T03:53:58.793Z,26.10
2019-02-10T03:57:05.540Z,29.50
2019-02-10T04:00:12.284Z,28.83
2019-02-10T04:03:19.082Z,26.30
2019-02-10T04:06:25.961Z,18.93
2019-02-10T04:09:32.766Z,29.40
2019-02-10T04:12:39.623Z,31.07
2019-02-10T04:15:46.426Z,20.00
2019-02-10T04:18:53.421Z,30.97
2019-02-10T04:22:00.141Z,36.03
2019-02-10T04:25:06.934Z,25.13
2019-02-10T04:28:13.694Z,30.37
2019-02-10T04:31:20.484Z,27.87
2019-02-10T04:34:27.229Z,25.83
2019-02-10T04:37:33.998Z,22.10
2019-02-10T04:40:40.748Z,27.73
2019-02-10T04:43:47.566Z,23.40
2019-02-10T04:46:54.381Z,28.70
2019-02-10T04:50:01.104Z,27.43
2019-02-10T04:53:08.020Z,25.30
2019-02-10T04:56:16.598Z,23.77
2019-02-10T04:59:23.387Z,29.00
2019-02-10T05:02:30.129Z,25.40
2019-02-10T05:05:36.863Z,21.13
2019-02-10T05:08:43.722Z,23.70
2019-02-10T05:11:50.459Z,24.47
2019-02-10T05:14:57.258Z,24.67
2019-02-10T05:18:03.952Z,25.10
2019-02-10T05:21:10.837Z,16.30
2019-02-10T05:24:17.591Z,20.73
2019-02-10T05:27:24.349Z,27.60
2019-02-10T05:30:31.140Z,25.60
2019-02-10T05:33:37.899Z,21.13
2019-02-10T05:36:44.644Z,25.80
2019-02-10T05:39:51.500Z,23.63
2019-02-10T05:42:58.248Z,19.83
2019-02-10T05:46:06.270Z,23.87
2019-02-10T05:49:13.078Z,23.83
2019-02-10T05:52:19.905Z,16.40
2019-02-10T05:55:26.787Z,24.20
2019-02-10T05:58:33.536Z,22.87
2019-02-10T06:02:02.795Z,31.00
2019-02-10T06:05:16.847Z,27.23
2019-02-10T06:08:23.625Z,26.30
2019-02-10T06:11:30.391Z,35.00
2019-02-10T06:14:37.278Z,30.93
2019-02-10T06:17:44.087Z,39.60
2019-02-10T06:20:51.070Z,45.40
2019-02-10T06:23:57.869Z,45.87
2019-02-10T06:27:04.652Z,47.67
2019-02-10T06:30:11.796Z,47.60
2019-02-10T06:33:18.682Z,36.60
2019-02-10T06:36:25.416Z,46.73
2019-02-10T06:39:32.253Z,40.90
2019-02-10T06:42:39.023Z,35.63
2019-02-10T06:45:45.871Z,33.53
2019-02-10T06:48:52.737Z,31.00
2019-02-10T06:51:59.613Z,32.80
2019-02-10T06:55:08.173Z,32.60
2019-02-10T06:58:15.243Z,23.07
2019-02-10T07:01:35.191Z,27.20
2019-02-10T07:04:41.913Z,32.33
2019-02-10T07:07:48.739Z,29.30
2019-02-10T07:10:55.549Z,37.10
2019-02-10T07:14:03.620Z,37.67
2019-02-10T07:17:46.749Z,43.90
2019-02-10T07:20:53.580Z,30.40
2019-02-10T07:24:22.063Z,41.43
2019-02-10T07:27:32.665Z,48.00
2019-02-10T07:30:45.334Z,52.00
2019-02-10T07:34:07.241Z,58.90
2019-02-10T07:37:37.301Z,54.80
2019-02-10T07:41:00.656Z,51.27
2019-02-10T07:44:44.337Z,47.03
2019-02-10T07:48:12.993Z,40.43
2019-02-10T07:51:32.284Z,47.63
2019-02-10T07:55:20.117Z,56.33
2019-02-10T07:59:06.867Z,50.63
2019-02-10T08:03:06.153Z,36.87
2019-02-10T08:06:41.703Z,38.60
2019-02-10T08:10:50.699Z,21.53
2019-02-10T08:14:23.837Z,29.77
2019-02-10T08:18:05.295Z,29.93
2019-02-10T08:22:11.263Z,26.43
2019-02-10T08:25:39.250Z,24.47
2019-02-10T08:29:29.423Z,18.07
2019-02-10T08:33:18.247Z,28.63
2019-02-10T08:36:46.400Z,30.00
2019-02-10T08:40:22.773Z,31.87
2019-02-10T08:44:01.141Z,32.00
2019-02-10T08:47:48.061Z,33.23
2019-02-10T08:51:30.381Z,29.20
2019-02-10T08:54:37.137Z,27.50
2019-02-10T08:57:43.993Z,31.83
2019-02-10T09:00:50.951Z,35.30
2019-02-10T09:03:57.757Z,29.43
2019-02-10T09:07:04.637Z,43.47
2019-02-10T09:10:12.338Z,43.80
2019-02-10T09:13:19.168Z,47.00
2019-02-10T09:16:26.053Z,51.48
2019-02-10T09:19:33.707Z,51.03
2019-02-10T09:22:40.539Z,44.10
2019-02-10T09:25:47.389Z,41.70
2019-02-10T09:28:54.632Z,32.33
2019-02-10T09:32:01.423Z,31.17
2019-02-10T09:35:08.619Z,28.00
2019-02-10T09:38:15.486Z,26.37
2019-02-10T09:41:22.461Z,27.30
2019-02-10T09:44:29.296Z,30.37
2019-02-10T09:47:36.109Z,35.73
2019-02-10T09:50:43.273Z,31.27
2019-02-10T09:53:50.135Z,29.00
2019-02-10T09:56:56.939Z,27.20
2019-02-10T10:00:04.186Z,24.07
2019-02-10T10:03:11.013Z,14.33
2019-02-10T10:06:17.827Z,19.57
2019-02-10T10:09:24.891Z,28.37
2019-02-10T10:12:31.807Z,36.80
2019-02-10T10:15:38.645Z,22.73
2019-02-10T10:18:45.503Z,28.10
2019-02-10T10:21:52.455Z,26.10
2019-02-10T10:25:00.596Z,28.80
2019-02-10T10:28:07.649Z,26.50
2019-02-10T10:31:14.461Z,36.90
2019-02-10T10:34:21.321Z,41.70
2019-02-10T10:37:28.311Z,46.70
2019-02-10T10:40:35.083Z,37.53
2019-02-10T10:43:42.257Z,39.92
2019-02-10T10:46:49.236Z,24.47
2019-02-10T10:49:56.015Z,33.13
2019-02-10T10:53:02.800Z,28.47
2019-02-10T10:56:10.169Z,21.97
2019-02-10T10:59:17.171Z,22.53
2019-02-10T11:02:23.991Z,27.00
2019-02-10T11:05:30.958Z,24.63
2019-02-10T11:08:38.217Z,34.40
2019-02-10T11:11:44.993Z,30.67
2019-02-10T11:14:51.912Z,26.40
2019-02-10T11:17:58.831Z,29.73
2019-02-10T11:21:05.651Z,29.60
2019-02-10T11:24:12.645Z,30.17
2019-02-10T11:27:19.499Z,33.70
2019-02-10T11:30:26.379Z,38.13
2019-02-10T11:33:33.246Z,37.13
2019-02-10T11:36:40.097Z,19.03
2019-02-10T11:39:47.037Z,27.20
2019-02-10T11:42:53.901Z,28.27
2019-02-10T11:46:00.745Z,14.30
2019-02-10T11:49:07.567Z,14.33
2019-02-10T11:52:14.419Z,18.53
2019-02-10T11:55:21.345Z,16.23
2019-02-10T11:58:28.275Z,12.70
2019-02-10T12:01:35.079Z,16.70
2019-02-10T12:04:42.332Z,20.23
2019-02-10T12:07:49.174Z,16.37
2019-02-10T12:10:56.063Z,13.40
2019-02-10T12:14:02.981Z,35.07
2019-02-10T12:17:09.837Z,16.57
2019-02-10T12:20:16.709Z,13.07
2019-02-10T12:23:23.542Z,12.50
2019-02-10T12:26:30.327Z,12.70
2019-02-10T12:29:37.152Z,16.53
2019-02-10T12:32:43.882Z,13.13
2019-02-10T12:35:57.989Z,19.60
2019-02-10T12:38:59.279Z,13.40
2019-02-10T12:42:06.182Z,17.00
2019-02-10T12:45:13.069Z,19.87
2019-02-10T12:48:19.912Z,21.33
2019-02-10T12:51:27.078Z,30.77
2019-02-10T12:54:33.906Z,25.80
2019-02-10T12:57:40.762Z,29.33
2019-02-10T13:00:47.520Z,24.60
2019-02-10T13:03:54.422Z,33.63
2019-02-10T13:07:02.401Z,39.37
2019-02-10T13:10:10.694Z,33.03
2019-02-10T13:13:19.306Z,46.87
2019-02-10T13:16:26.241Z,40.70
2019-02-10T13:19:33.164Z,26.70
2019-02-10T13:22:39.915Z,17.53
2019-02-10T13:25:46.774Z,23.53
2019-02-10T13:28:53.671Z,21.10
2019-02-10T13:32:00.532Z,32.03
2019-02-10T13:35:07.416Z,26.20
2019-02-10T13:38:14.300Z,24.23
2019-02-10T13:41:21.168Z,10.47
2019-02-10T13:44:28.037Z,24.97
2019-02-10T13:47:34.882Z,19.07
2019-02-10T13:50:42.024Z,29.40
2019-02-10T13:53:49.293Z,23.23
2019-02-10T13:56:56.166Z,25.73
2019-02-10T14:00:03.085Z,21.43
2019-02-10T14:03:09.943Z,34.20
2019-02-10T14:06:16.779Z,32.60
2019-02-10T14:09:23.585Z,37.77
2019-02-10T14:12:30.436Z,28.57
2019-02-10T14:15:37.374Z,19.17
2019-02-10T14:18:44.284Z,33.10
2019-02-10T14:21:51.274Z,29.23
2019-02-10T14:24:57.994Z,33.37
2019-02-10T14:28:04.844Z,23.33
2019-02-10T14:31:11.660Z,39.57
2019-02-10T14:34:18.881Z,33.00
2019-02-10T14:37:25.898Z,20.47
2019-02-10T14:40:34.104Z,39.53
2019-02-10T14:43:40.940Z,42.00
2019-02-10T14:46:49.058Z,22.50
2019-02-10T14:49:55.953Z,31.00
2019-02-10T14:53:03.162Z,39.80
2019-02-10T14:56:10.005Z,40.80
2019-02-10T14:59:16.882Z,24.40
2019-02-10T15:02:23.808Z,30.80
2019-02-10T15:05:30.690Z,17.53
2019-02-10T15:08:39.637Z,15.83
2019-02-10T15:11:47.332Z,17.97
2019-02-10T15:14:54.204Z,21.60
2019-02-10T15:18:01.326Z,29.87
2019-02-10T15:21:08.250Z,18.07
2019-02-10T15:24:15.010Z,21.20
2019-02-10T15:27:22.038Z,26.17
2019-02-10T15:30:28.982Z,20.37
2019-02-10T15:33:35.806Z,18.70
2019-02-10T15:36:42.618Z,21.37
2019-02-10T15:39:49.489Z,21.90
2019-02-10T15:42:56.378Z,19.73
2019-02-10T15:46:03.235Z,19.37
2019-02-10T15:49:10.211Z,18.70
2019-02-10T15:52:17.146Z,14.03
2019-02-10T15:55:25.646Z,18.47
2019-02-10T15:58:32.654Z,19.67
2019-02-10T16:01:39.786Z,24.60
2019-02-10T16:04:46.533Z,24.93
2019-02-10T16:07:53.401Z,20.20
2019-02-10T16:11:00.204Z,19.27
2019-02-10T16:14:07.051Z,26.80
2019-02-10T16:17:14.351Z,31.90
2019-02-10T16:20:21.443Z,41.10
2019-02-10T16:23:28.372Z,41.87
2019-02-10T16:26:35.257Z,36.63
2019-02-10T16:29:42.384Z,61.00
2019-02-10T16:32:50.322Z,29.33
2019-02-10T16:35:57.410Z,28.60
2019-02-10T16:39:06.546Z,26.63
2019-02-10T16:42:14.154Z,31.77
2019-02-10T16:45:20.965Z,25.30
2019-02-10T16:48:29.959Z,16.97
2019-02-10T16:51:37.371Z,20.23
2019-02-10T16:54:44.603Z,26.30
2019-02-10T16:57:51.587Z,20.77
2019-02-10T17:00:58.549Z,15.27
2019-02-10T17:04:05.531Z,19.20
2019-02-10T17:07:12.542Z,14.10
2019-02-10T17:10:22.353Z,17.13
2019-02-10T17:13:29.428Z,12.73
2019-02-10T17:16:36.385Z,12.80
2019-02-10T17:19:43.519Z,15.40
2019-02-10T17:22:50.556Z,11.50
2019-02-10T17:25:57.324Z,24.17
2019-02-10T17:29:04.398Z,40.57
2019-02-10T17:32:12.495Z,16.77
2019-02-10T17:35:19.572Z,23.57
2019-02-10T17:38:26.548Z,39.60
2019-02-10T17:41:40.117Z,43.30
2019-02-10T17:44:47.098Z,49.57
2019-02-10T17:47:53.951Z,46.30
2019-02-10T17:51:00.841Z,32.13
2019-02-10T17:54:07.663Z,18.73
2019-02-10T17:57:14.612Z,27.63
2019-02-10T18:00:24.966Z,31.40
2019-02-10T18:03:32.924Z,21.50
2019-02-10T18:06:40.044Z,27.53
2019-02-10T18:09:47.049Z,20.87
2019-02-10T18:12:53.817Z,38.73
2019-02-10T18:16:25.565Z,21.17
2019-02-10T18:19:47.348Z,17.37
2019-02-10T18:23:03.685Z,19.37
2019-02-10T18:26:31.006Z,19.20
2019-02-10T18:29:44.370Z,30.27
2019-02-10T18:33:01.578Z,22.50
2019-02-10T18:36:25.996Z,24.50
2019-02-10T18:39:46.584Z,32.17
2019-02-10T18:43:27.521Z,32.60
2019-02-10T18:46:53.578Z,22.90
2019-02-10T18:50:17.456Z,16.87
2019-02-10T18:53:34.964Z,13.90
2019-02-10T18:57:10.185Z,13.57
2019-02-10T19:00:38.971Z,19.07
2019-02-10T19:04:05.524Z,20.30
2019-02-10T19:07:31.256Z,37.23
2019-02-10T19:10:56.511Z,23.23
2019-02-10T19:14:21.118Z,30.00
2019-02-10T19:17:55.787Z,27.00
2019-02-10T19:21:20.526Z,36.30
2019-02-10T19:24:46.351Z,45.77
2019-02-10T19:28:10.593Z,45.17
2019-02-10T19:31:37.456Z,41.53
2019-02-10T19:35:03.210Z,21.87
2019-02-10T19:38:41.204Z,29.60
2019-02-10T19:42:00.890Z,16.03
2019-02-10T19:45:36.208Z,29.00
2019-02-10T19:48:57.151Z,39.97
2019-02-10T19:52:14.450Z,23.20
2019-02-10T19:55:32.618Z,35.70
2019-02-10T19:59:02.891Z,34.67
2019-02-10T20:02:20.633Z,32.30
2019-02-10T20:05:36.912Z,22.03
2019-02-10T20:09:06.842Z,38.67
2019-02-10T20:12:38.748Z,43.67
2019-02-10T20:15:53.872Z,53.60
2019-02-10T20:19:26.489Z,38.20
2019-02-10T20:22:53.042Z,42.37
2019-02-10T20:26:21.493Z,57.30
2019-02-10T20:29:49.795Z,46.03
2019-02-10T20:33:15.806Z,39.13
2019-02-10T20:36:47.319Z,27.20
2019-02-10T20:40:05.079Z,43.37
2019-02-10T20:43:46.275Z,40.33
2019-02-10T20:47:04.963Z,35.57
2019-02-10T20:50:39.693Z,39.00
2019-02-10T20:54:11.549Z,33.87
2019-02-10T20:57:25.302Z,22.77
2019-02-10T21:01:03.174Z,34.13
2019-02-10T21:04:27.508Z,37.90
2019-02-10T21:07:52.967Z,42.57
2019-02-10T21:11:15.636Z,39.50
2019-02-10T21:14:40.306Z,42.70
2019-02-10T21:18:09.085Z,42.73
2019-02-10T21:21:41.082Z,38.00
2019-02-10T21:25:06.833Z,41.53
2019-02-10T21:28:28.338Z,43.73
2019-02-10T21:31:48.508Z,49.40
2019-02-10T21:35:13.030Z,45.40
2019-02-10T21:38:29.859Z,47.37
2019-02-10T21:41:47.052Z,53.30
2019-02-10T21:45:12.913Z,45.80
2019-02-10T21:48:23.841Z,42.10
2019-02-10T21:51:30.794Z,41.37
2019-02-10T21:54:37.670Z,49.80
2019-02-10T21:57:44.524Z,45.57
2019-02-10T22:00:51.456Z,39.30
2019-02-10T22:03:59.269Z,36.40
2019-02-10T22:07:06.059Z,28.00
2019-02-10T22:10:12.869Z,40.10
2019-02-10T22:13:19.795Z,37.47
2019-02-10T22:16:27.779Z,38.63
2019-02-10T22:19:35.781Z,35.23
2019-02-10T22:22:42.635Z,41.40
2019-02-10T22:25:49.348Z,40.23
2019-02-10T22:28:57.147Z,33.90
2019-02-10T22:32:03.964Z,34.30
2019-02-10T22:35:10.801Z,38.23
2019-02-10T22:38:17.708Z,21.77
2019-02-10T22:41:24.699Z,40.63
2019-02-10T22:44:31.889Z,38.53
2019-02-10T22:47:38.682Z,33.30
2019-02-10T22:50:45.760Z,40.07
2019-02-10T22:53:52.647Z,40.70
2019-02-10T22:56:59.485Z,17.17
2019-02-10T23:00:16.586Z,32.93
2019-02-10T23:03:24.287Z,32.77
2019-02-10T23:06:31.070Z,37.23
2019-02-10T23:09:37.940Z,38.30
2019-02-10T23:12:44.691Z,35.57
2019-02-10T23:15:51.521Z,38.90
2019-02-10T23:18:58.273Z,24.13
2019-02-10T23:22:05.102Z,40.30
2019-02-10T23:25:11.832Z,36.07
2019-02-10T23:28:18.671Z,40.07
2019-02-10T23:31:25.474Z,32.27
2019-02-10T23:34:32.232Z,45.23
2019-02-10T23:37:39.093Z,36.47
2019-02-10T23:40:45.972Z,45.13
2019-02-10T23:43:52.770Z,42.60
2019-02-10T23:46:59.509Z,51.60
2019-02-10T23:50:06.529Z,45.43
2019-02-10T23:53:13.240Z,34.93
2019-02-10T23:56:19.967Z,43.07
2019-02-10T23:59:26.751Z,35.13
